createdAt,value
2019-03-18T00:02:18.260Z,9.75
2019-03-18T00:04:44.862Z,10.55
2019-03-18T00:07:11.103Z,8.65
2019-03-18T00:09:37.475Z,8.78
2019-03-18T00:12:03.880Z,8.40
2019-03-18T00:14:30.112Z,10.68
2019-03-18T00:16:56.499Z,8.68
2019-03-18T00:19:22.860Z,9.48
2019-03-18T00:21:49.221Z,7.95
2019-03-18T00:24:15.586Z,8.98
2019-03-18T00:26:41.978Z,8.25
2019-03-18T00:29:10.621Z,9.00
2019-03-18T00:31:36.922Z,10.63
2019-03-18T00:34:03.278Z,10.55
2019-03-18T00:36:29.746Z,10.05
2019-03-18T00:38:56.010Z,7.97
2019-03-18T00:41:22.532Z,10.70
2019-03-18T00:43:48.787Z,9.20
2019-03-18T00:46:15.177Z,6.72
2019-03-18T00:48:41.655Z,11.90
2019-03-18T00:51:08.010Z,8.00
2019-03-18T00:53:34.621Z,10.85
2019-03-18T00:56:00.882Z,7.85
2019-03-18T00:58:27.132Z,7.72
2019-03-18T01:00:53.875Z,11.28
2019-03-18T01:03:20.165Z,8.13
2019-03-18T01:05:46.615Z,12.70
2019-03-18T01:08:12.995Z,8.93
2019-03-18T01:10:39.246Z,9.83
2019-03-18T01:13:05.870Z,7.12
2019-03-18T01:15:32.335Z,7.85
2019-03-18T01:17:58.857Z,7.65
2019-03-18T01:20:25.270Z,6.40
2019-03-18T01:22:51.651Z,11.22
2019-03-18T01:25:18.220Z,5.30
2019-03-18T01:27:44.484Z,8.28
2019-03-18T01:30:11.937Z,7.55
2019-03-18T01:32:38.257Z,4.87
2019-03-18T01:35:07.132Z,6.33
2019-03-18T01:37:33.450Z,9.13
2019-03-18T01:39:59.967Z,6.15
2019-03-18T01:42:26.431Z,5.20
2019-03-18T01:44:52.678Z,6.37
2019-03-18T01:47:19.333Z,7.80
2019-03-18T01:49:45.579Z,7.35
2019-03-18T01:52:11.824Z,5.95
2019-03-18T01:54:38.123Z,6.65
2019-03-18T01:57:04.389Z,5.72
2019-03-18T01:59:30.706Z,7.47
2019-03-18T02:01:57.492Z,7.15
2019-03-18T02:04:23.744Z,7.80
2019-03-18T02:06:50.199Z,9.13
2019-03-18T02:09:16.558Z,7.08
2019-03-18T02:11:42.819Z,8.45
2019-03-18T02:14:09.094Z,9.75
2019-03-18T02:16:35.510Z,10.58
2019-03-18T02:19:01.780Z,8.50
2019-03-18T02:21:28.098Z,10.18
2019-03-18T02:23:54.495Z,8.60
2019-03-18T02:26:20.752Z,8.25
2019-03-18T02:28:47.415Z,8.75
2019-03-18T02:31:14.002Z,6.33
2019-03-18T02:33:40.257Z,9.73
2019-03-18T02:36:06.612Z,10.03
2019-03-18T02:38:32.929Z,11.97
2019-03-18T02:40:59.197Z,9.38
2019-03-18T02:43:25.527Z,10.38
2019-03-18T02:45:51.874Z,9.85
2019-03-18T02:48:18.224Z,8.53
2019-03-18T02:50:44.529Z,11.85
2019-03-18T02:53:10.809Z,11.30
2019-03-18T02:55:37.494Z,11.12
2019-03-18T02:58:03.766Z,10.25
2019-03-18T03:00:30.173Z,8.48
2019-03-18T03:02:56.687Z,9.00
2019-03-18T03:05:23.037Z,7.50
2019-03-18T03:07:49.348Z,6.12
2019-03-18T03:10:15.803Z,7.17
2019-03-18T03:12:42.197Z,8.38
2019-03-18T03:15:12.745Z,7.58
2019-03-18T03:17:39.105Z,5.70
2019-03-18T03:20:07.797Z,6.67
2019-03-18T03:22:34.332Z,8.80
2019-03-18T03:25:00.800Z,7.95
2019-03-18T03:27:27.118Z,7.40
2019-03-18T03:29:53.371Z,7.25
2019-03-18T03:32:19.642Z,7.87
2019-03-18T03:34:46.034Z,8.93
2019-03-18T03:37:12.266Z,7.55
2019-03-18T03:39:38.530Z,9.75
2019-03-18T03:42:05.315Z,9.60
2019-03-18T03:44:31.689Z,8.63
2019-03-18T03:46:57.928Z,9.30
2019-03-18T03:49:24.200Z,8.55
2019-03-18T03:51:50.756Z,6.95
2019-03-18T03:54:17.141Z,12.80
2019-03-18T03:56:43.601Z,8.15
2019-03-18T03:59:12.216Z,10.18
2019-03-18T04:01:38.511Z,9.90
2019-03-18T04:04:04.773Z,6.65
2019-03-18T04:06:31.143Z,10.25
2019-03-18T04:08:59.671Z,9.63
2019-03-18T04:11:26.009Z,13.53
2019-03-18T04:13:52.261Z,11.57
2019-03-18T04:16:18.697Z,10.88
2019-03-18T04:18:45.082Z,12.90
2019-03-18T04:21:11.372Z,11.97
2019-03-18T04:23:38.080Z,11.48
2019-03-18T04:26:04.401Z,12.43
2019-03-18T04:28:39.809Z,11.95
2019-03-18T04:31:06.340Z,9.80
2019-03-18T04:33:32.633Z,12.03
2019-03-18T04:35:59.111Z,12.30
2019-03-18T04:38:25.458Z,8.53
2019-03-18T04:40:52.033Z,12.60
2019-03-18T04:43:18.350Z,12.18
2019-03-18T04:45:44.838Z,12.20
2019-03-18T04:48:11.426Z,13.70
2019-03-18T04:50:37.685Z,12.95
2019-03-18T04:53:03.930Z,14.90
2019-03-18T04:55:30.218Z,12.55
2019-03-18T04:57:56.470Z,17.70
2019-03-18T05:00:23.098Z,14.95
2019-03-18T05:02:49.550Z,9.93
2019-03-18T05:05:15.967Z,11.55
2019-03-18T05:07:42.529Z,13.60
2019-03-18T05:10:09.419Z,15.72
2019-03-18T05:12:36.031Z,12.95
2019-03-18T05:15:05.066Z,14.93
2019-03-18T05:17:31.301Z,16.73
2019-03-18T05:19:57.838Z,10.85
2019-03-18T05:22:24.171Z,12.98
2019-03-18T05:24:50.572Z,14.80
2019-03-18T05:27:16.990Z,14.00
2019-03-18T05:29:43.535Z,12.73
2019-03-18T05:32:12.654Z,15.08
2019-03-18T05:34:38.958Z,15.50
2019-03-18T05:37:05.489Z,13.53
2019-03-18T05:39:31.992Z,11.80
2019-03-18T05:41:58.415Z,15.35
2019-03-18T05:44:24.654Z,19.32
2019-03-18T05:46:50.874Z,20.68
2019-03-18T05:49:17.173Z,22.35
2019-03-18T05:51:43.439Z,19.17
2019-03-18T05:54:09.855Z,24.40
2019-03-18T05:56:36.472Z,19.80
2019-03-18T05:59:02.702Z,21.95
2019-03-18T06:01:29.075Z,25.35
2019-03-18T06:03:55.404Z,25.48
2019-03-18T06:06:21.865Z,20.60
2019-03-18T06:08:48.091Z,27.50
2019-03-18T06:11:14.537Z,24.20
2019-03-18T06:13:42.688Z,25.68
2019-03-18T06:16:08.994Z,22.07
2019-03-18T06:18:35.297Z,27.52
2019-03-18T06:21:01.654Z,17.75
2019-03-18T06:23:27.907Z,22.87
2019-03-18T06:25:54.353Z,24.77
2019-03-18T06:28:20.653Z,21.17
2019-03-18T06:30:47.022Z,25.75
2019-03-18T06:33:13.446Z,27.50
2019-03-18T06:35:39.705Z,26.42
2019-03-18T06:38:06.075Z,20.50
2019-03-18T06:40:32.883Z,24.82
2019-03-18T06:42:59.249Z,24.77
2019-03-18T06:45:25.620Z,27.62
2019-03-18T06:48:03.859Z,26.05
2019-03-18T06:50:20.013Z,24.70
2019-03-18T06:52:46.425Z,32.75
2019-03-18T06:55:12.725Z,26.60
2019-03-18T06:57:39.016Z,22.85
2019-03-18T07:00:11.482Z,23.62
2019-03-18T07:02:37.877Z,29.02
2019-03-18T07:05:05.770Z,25.77
2019-03-18T07:07:32.020Z,27.22
2019-03-18T07:09:58.293Z,27.50
2019-03-18T07:12:24.707Z,25.82
2019-03-18T07:14:50.993Z,24.60
2019-03-18T07:17:17.475Z,26.90
2019-03-18T07:19:43.866Z,31.97
2019-03-18T07:22:10.126Z,25.60
2019-03-18T07:24:36.401Z,30.85
2019-03-18T07:27:02.793Z,29.67
2019-03-18T07:29:29.062Z,23.90
2019-03-18T07:31:55.535Z,24.25
2019-03-18T07:34:21.814Z,28.55
2019-03-18T07:36:48.286Z,32.13
2019-03-18T07:39:14.657Z,26.45
2019-03-18T07:41:40.890Z,27.27
2019-03-18T07:44:07.267Z,33.05
2019-03-18T07:46:33.540Z,22.52
2019-03-18T07:49:00.270Z,27.13
2019-03-18T07:51:26.563Z,28.42
2019-03-18T07:53:52.844Z,26.20
2019-03-18T07:56:19.157Z,30.70
2019-03-18T07:58:45.475Z,28.38
2019-03-18T08:01:11.858Z,27.48
2019-03-18T08:03:38.353Z,27.25
2019-03-18T08:06:04.759Z,27.73
2019-03-18T08:08:31.111Z,24.02
2019-03-18T08:10:57.358Z,34.95
2019-03-18T08:13:23.612Z,25.30
2019-03-18T08:15:49.983Z,21.65
2019-03-18T08:18:16.539Z,23.50
2019-03-18T08:20:42.906Z,26.70
2019-03-18T08:23:09.479Z,26.23
2019-03-18T08:25:36.220Z,26.65
2019-03-18T08:28:02.729Z,22.22
2019-03-18T08:30:35.570Z,25.82
2019-03-18T08:33:01.859Z,25.43
2019-03-18T08:35:28.237Z,26.82
2019-03-18T08:37:55.043Z,23.12
2019-03-18T08:40:21.585Z,24.63
2019-03-18T08:42:47.988Z,20.43
2019-03-18T08:45:14.349Z,22.95
2019-03-18T08:47:40.633Z,21.60
2019-03-18T08:50:12.425Z,23.38
2019-03-18T08:52:39.116Z,17.90
2019-03-18T08:55:08.376Z,20.95
2019-03-18T08:57:34.704Z,19.35
2019-03-18T09:00:01.344Z,18.82
2019-03-18T09:02:27.951Z,19.90
2019-03-18T09:04:54.703Z,18.98
2019-03-18T09:07:21.107Z,21.48
2019-03-18T09:09:47.353Z,15.00
2019-03-18T09:12:13.769Z,23.12
2019-03-18T09:14:40.144Z,21.23
2019-03-18T09:17:06.415Z,17.50
2019-03-18T09:19:32.990Z,22.62
2019-03-18T09:21:59.292Z,23.65
2019-03-18T09:24:25.540Z,23.77
2019-03-18T09:27:01.953Z,19.25
2019-03-18T09:29:20.030Z,16.32
2019-03-18T09:31:46.293Z,12.40
2019-03-18T09:34:12.511Z,17.85
2019-03-18T09:36:38.842Z,14.30
2019-03-18T09:39:06.016Z,14.60
2019-03-18T09:41:32.639Z,13.78
2019-03-18T09:43:58.942Z,14.93
2019-03-18T09:46:25.213Z,16.45
2019-03-18T09:48:51.489Z,9.80
2019-03-18T09:51:17.722Z,11.70
2019-03-18T09:53:44.010Z,13.32
2019-03-18T09:56:10.251Z,11.78
2019-03-18T09:58:36.557Z,12.65
2019-03-18T10:01:03.043Z,17.00
2019-03-18T10:03:29.415Z,22.93
2019-03-18T10:05:55.873Z,25.62
2019-03-18T10:08:25.032Z,22.75
2019-03-18T10:10:50.710Z,29.60
2019-03-18T10:13:17.042Z,28.65
2019-03-18T10:15:43.463Z,27.60
2019-03-18T10:18:09.720Z,27.58
2019-03-18T10:20:36.060Z,28.95
2019-03-18T10:23:03.156Z,29.55
2019-03-18T10:25:29.643Z,27.98
2019-03-18T10:27:56.200Z,29.77
2019-03-18T10:30:25.408Z,27.05
2019-03-18T10:32:52.009Z,21.05
2019-03-18T10:35:18.308Z,24.43
2019-03-18T10:37:44.839Z,30.37
2019-03-18T10:40:13.615Z,20.68
2019-03-18T10:42:40.092Z,22.82
2019-03-18T10:45:08.772Z,28.10
2019-03-18T10:47:35.125Z,27.73
2019-03-18T10:50:01.507Z,26.48
2019-03-18T10:52:27.877Z,29.10
2019-03-18T10:54:54.582Z,24.82
2019-03-18T10:57:20.896Z,16.12
2019-03-18T10:59:47.382Z,13.40
2019-03-18T11:02:13.854Z,16.15
2019-03-18T11:04:40.283Z,15.03
2019-03-18T11:07:06.555Z,22.22
2019-03-18T11:09:33.067Z,22.65
2019-03-18T11:11:59.461Z,20.37
2019-03-18T11:14:25.842Z,20.52
2019-03-18T11:16:52.596Z,19.17
2019-03-18T11:19:19.075Z,21.82
2019-03-18T11:21:45.422Z,23.00
2019-03-18T11:24:11.777Z,27.50
2019-03-18T11:26:38.205Z,30.80
2019-03-18T11:29:05.990Z,30.90
2019-03-18T11:31:32.365Z,32.05
2019-03-18T11:33:58.730Z,22.95
2019-03-18T11:36:25.058Z,20.77
2019-03-18T11:38:51.349Z,9.05
2019-03-18T11:41:17.769Z,7.92
2019-03-18T11:43:44.227Z,5.15
2019-03-18T11:46:10.506Z,7.40
2019-03-18T11:48:37.017Z,7.87
2019-03-18T11:51:03.408Z,7.22
2019-03-18T11:53:29.657Z,10.08
2019-03-18T11:55:56.067Z,9.10
2019-03-18T11:58:22.452Z,7.15
2019-03-18T12:00:48.741Z,10.70
2019-03-18T12:03:15.273Z,11.35
2019-03-18T12:06:01.641Z,12.63
2019-03-18T12:08:27.967Z,12.93
2019-03-18T12:10:54.332Z,17.05
2019-03-18T12:13:20.862Z,15.25
2019-03-18T12:15:47.357Z,23.67
2019-03-18T12:18:13.696Z,22.98
2019-03-18T12:20:40.047Z,21.02
2019-03-18T12:23:06.670Z,21.27
2019-03-18T12:25:34.048Z,24.25
2019-03-18T12:28:00.626Z,24.72
2019-03-18T12:30:27.534Z,20.88
2019-03-18T12:32:53.870Z,23.25
2019-03-18T12:35:20.363Z,28.55
2019-03-18T12:37:46.950Z,26.07
2019-03-18T12:40:14.458Z,24.98
2019-03-18T12:42:40.948Z,28.12
2019-03-18T12:45:14.310Z,23.22
2019-03-18T12:47:40.838Z,17.73
2019-03-18T12:50:38.735Z,21.42
2019-03-18T12:52:51.859Z,22.02
2019-03-18T12:55:18.310Z,20.32
2019-03-18T12:57:44.688Z,22.07
2019-03-18T13:00:23.751Z,19.45
2019-03-18T13:02:50.186Z,23.38
2019-03-18T13:05:16.655Z,24.80
2019-03-18T13:07:42.993Z,20.20
2019-03-18T13:10:14.787Z,27.42
2019-03-18T13:12:41.155Z,22.05
2019-03-18T13:15:10.361Z,24.70
2019-03-18T13:17:36.860Z,20.35
2019-03-18T13:20:06.807Z,22.62
2019-03-18T13:22:33.260Z,22.50
2019-03-18T13:24:59.512Z,25.27
2019-03-18T13:27:25.834Z,23.00
2019-03-18T13:29:52.144Z,22.70
2019-03-18T13:32:18.472Z,20.55
2019-03-18T13:34:44.765Z,19.27
2019-03-18T13:37:11.255Z,18.55
2019-03-18T13:39:37.702Z,26.42
2019-03-18T13:42:04.181Z,21.25
2019-03-18T13:44:30.578Z,25.85
2019-03-18T13:46:56.820Z,24.02
2019-03-18T13:49:23.095Z,22.95
2019-03-18T13:51:49.406Z,20.82
2019-03-18T13:54:15.891Z,23.42
2019-03-18T13:56:42.411Z,20.80
2019-03-18T13:59:08.793Z,25.12
2019-03-18T14:01:35.070Z,25.00
2019-03-18T14:04:01.457Z,26.20
2019-03-18T14:06:27.732Z,23.35
2019-03-18T14:08:53.985Z,28.07
2019-03-18T14:11:20.390Z,23.80
2019-03-18T14:13:46.666Z,27.35
2019-03-18T14:16:12.886Z,26.20
2019-03-18T14:18:39.830Z,23.42
2019-03-18T14:21:06.310Z,23.00
2019-03-18T14:23:32.621Z,19.67
2019-03-18T14:25:58.989Z,17.45
2019-03-18T14:28:27.743Z,13.98
2019-03-18T14:30:54.131Z,18.10
2019-03-18T14:33:20.382Z,21.45
2019-03-18T14:35:46.803Z,21.80
2019-03-18T14:38:13.426Z,17.02
2019-03-18T14:40:39.702Z,21.27
2019-03-18T14:43:06.093Z,24.02
2019-03-18T14:45:32.357Z,20.77
2019-03-18T14:47:58.726Z,23.70
2019-03-18T14:50:25.051Z,25.55
2019-03-18T14:52:51.499Z,19.98
2019-03-18T14:55:18.108Z,23.95
2019-03-18T14:57:44.498Z,27.05
2019-03-18T15:00:17.536Z,23.87
2019-03-18T15:02:43.937Z,23.07
2019-03-18T15:05:12.264Z,30.23
2019-03-18T15:07:38.701Z,24.40
2019-03-18T15:10:08.577Z,18.87
2019-03-18T15:12:34.832Z,20.27
2019-03-18T15:15:01.088Z,21.55
2019-03-18T15:17:30.135Z,16.67
2019-03-18T15:19:56.501Z,21.33
2019-03-18T15:22:22.923Z,24.27
2019-03-18T15:24:49.311Z,18.07
2019-03-18T15:27:15.594Z,17.42
2019-03-18T15:29:41.893Z,18.70
2019-03-18T15:32:08.180Z,16.20
2019-03-18T15:34:34.444Z,19.62
2019-03-18T15:37:03.451Z,19.62
2019-03-18T15:39:29.667Z,16.82
2019-03-18T15:41:56.353Z,22.42
2019-03-18T15:44:22.626Z,23.75
2019-03-18T15:46:48.973Z,18.57
2019-03-18T15:49:15.546Z,23.67
2019-03-18T15:51:44.204Z,24.18
2019-03-18T15:54:10.567Z,29.37
2019-03-18T15:56:36.982Z,25.48
2019-03-18T15:59:03.456Z,27.87
2019-03-18T16:01:29.865Z,23.67
2019-03-18T16:03:56.102Z,23.45
2019-03-18T16:06:22.481Z,20.65
2019-03-18T16:08:48.761Z,21.45
2019-03-18T16:11:15.224Z,25.68
2019-03-18T16:13:41.489Z,27.13
2019-03-18T16:16:07.787Z,26.10
2019-03-18T16:18:34.079Z,27.67
2019-03-18T16:21:00.331Z,26.65
2019-03-18T16:23:27.711Z,27.82
2019-03-18T16:26:01.540Z,29.20
2019-03-18T16:28:27.847Z,31.68
2019-03-18T16:30:54.248Z,28.47
2019-03-18T16:33:20.551Z,31.37
2019-03-18T16:35:46.804Z,28.42
2019-03-18T16:38:13.232Z,31.70
2019-03-18T16:40:39.576Z,26.87
2019-03-18T16:43:06.085Z,26.33
2019-03-18T16:45:32.550Z,27.42
2019-03-18T16:47:58.934Z,21.00
2019-03-18T16:50:28.158Z,27.70
2019-03-18T16:52:54.552Z,24.25
2019-03-18T16:55:20.924Z,31.00
2019-03-18T16:57:47.361Z,31.10
2019-03-18T17:00:19.746Z,21.55
2019-03-18T17:02:46.315Z,30.40
2019-03-18T17:05:15.639Z,30.10
2019-03-18T17:07:43.764Z,32.73
2019-03-18T17:10:15.107Z,23.10
2019-03-18T17:12:41.632Z,22.22
2019-03-18T17:15:10.109Z,25.77
2019-03-18T17:17:36.833Z,23.87
2019-03-18T17:20:08.430Z,22.20
2019-03-18T17:22:34.827Z,28.95
2019-03-18T17:25:01.246Z,18.90
2019-03-18T17:27:29.729Z,23.62
2019-03-18T17:29:56.312Z,23.47
2019-03-18T17:32:23.043Z,26.77
2019-03-18T17:34:49.426Z,23.35
2019-03-18T17:37:15.704Z,20.05
2019-03-18T17:39:42.028Z,19.20
2019-03-18T17:42:08.536Z,19.12
2019-03-18T17:44:36.288Z,17.30
2019-03-18T17:47:03.011Z,24.18
2019-03-18T17:49:29.309Z,23.18
2019-03-18T17:51:55.569Z,25.72
2019-03-18T17:54:21.858Z,23.30
2019-03-18T17:56:48.286Z,23.92
2019-03-18T17:59:14.588Z,23.85
2019-03-18T18:01:40.982Z,36.40
2019-03-18T18:04:07.260Z,26.05
2019-03-18T18:06:33.523Z,20.50
2019-03-18T18:08:59.846Z,33.18
2019-03-18T18:11:26.102Z,27.50
2019-03-18T18:13:52.473Z,22.40
2019-03-18T18:16:18.730Z,24.70
2019-03-18T18:18:45.028Z,23.98
2019-03-18T18:21:11.412Z,25.17
2019-03-18T18:23:37.806Z,24.45
2019-03-18T18:26:04.301Z,26.93
2019-03-18T18:28:30.817Z,24.18
2019-03-18T18:30:57.096Z,28.17
2019-03-18T18:33:23.539Z,28.90
2019-03-18T18:35:49.907Z,29.42
2019-03-18T18:38:16.212Z,24.20
2019-03-18T18:40:43.522Z,26.57
2019-03-18T18:43:09.956Z,21.87
2019-03-18T18:45:37.770Z,20.90
2019-03-18T18:48:04.221Z,19.00
2019-03-18T18:50:30.636Z,18.40
2019-03-18T18:52:56.979Z,17.73
2019-03-18T18:55:23.519Z,16.95
2019-03-18T18:57:49.764Z,18.57
2019-03-18T19:00:21.091Z,17.65
2019-03-18T19:02:47.476Z,14.23
2019-03-18T19:05:14.718Z,18.73
2019-03-18T19:07:41.523Z,12.50
2019-03-18T19:10:10.483Z,16.50
2019-03-18T19:12:37.039Z,15.95
2019-03-18T19:15:07.217Z,19.87
2019-03-18T19:17:33.615Z,17.32
2019-03-18T19:20:00.369Z,17.45
2019-03-18T19:22:26.887Z,15.18
2019-03-18T19:24:53.198Z,21.45
2019-03-18T19:27:19.504Z,14.33
2019-03-18T19:29:46.793Z,18.32
2019-03-18T19:32:13.138Z,16.30
2019-03-18T19:34:39.465Z,18.32
2019-03-18T19:37:05.831Z,21.17
2019-03-18T19:39:32.335Z,19.55
2019-03-18T19:41:58.810Z,17.67
2019-03-18T19:44:25.211Z,22.85
2019-03-18T19:46:51.496Z,21.48
2019-03-18T19:49:17.867Z,17.90
2019-03-18T19:51:44.211Z,23.95
2019-03-18T19:54:12.956Z,23.50
2019-03-18T19:56:39.518Z,21.02
2019-03-18T19:59:05.932Z,23.22
2019-03-18T20:01:32.519Z,18.82
2019-03-18T20:03:59.005Z,23.45
2019-03-18T20:06:25.666Z,22.17
2019-03-18T20:08:52.128Z,17.10
2019-03-18T20:11:18.919Z,18.75
2019-03-18T20:13:45.817Z,24.12
2019-03-18T20:16:12.519Z,24.25
2019-03-18T20:18:39.042Z,23.07
2019-03-18T20:21:05.455Z,24.35
2019-03-18T20:23:31.707Z,18.65
2019-03-18T20:25:58.208Z,22.07
2019-03-18T20:28:24.537Z,22.77
2019-03-18T20:30:51.174Z,19.37
2019-03-18T20:33:17.658Z,22.10
2019-03-18T20:35:44.137Z,16.87
2019-03-18T20:38:10.628Z,21.20
2019-03-18T20:40:37.190Z,25.20
2019-03-18T20:43:03.816Z,25.25
2019-03-18T20:45:30.245Z,18.77
2019-03-18T20:47:56.814Z,24.15
2019-03-18T20:50:23.652Z,23.38
2019-03-18T20:52:50.194Z,23.32
2019-03-18T20:55:16.732Z,20.27
2019-03-18T20:57:43.209Z,20.00
2019-03-18T21:00:12.576Z,20.72
2019-03-18T21:02:40.084Z,19.85
2019-03-18T21:05:08.055Z,21.33
2019-03-18T21:07:34.506Z,21.00
2019-03-18T21:10:00.918Z,19.92
2019-03-18T21:12:27.287Z,20.23
2019-03-18T21:14:53.507Z,21.70
2019-03-18T21:17:19.831Z,22.70
2019-03-18T21:19:46.496Z,16.60
2019-03-18T21:22:12.821Z,24.00
2019-03-18T21:24:39.106Z,25.35
2019-03-18T21:27:05.690Z,21.37
2019-03-18T21:29:32.073Z,24.60
2019-03-18T21:31:58.575Z,20.02
2019-03-18T21:34:24.882Z,26.12
2019-03-18T21:36:51.490Z,24.37
2019-03-18T21:39:18.199Z,19.75
2019-03-18T21:41:44.698Z,25.90
2019-03-18T21:44:11.116Z,21.10
2019-03-18T21:46:37.635Z,26.33
2019-03-18T21:49:06.842Z,23.15
2019-03-18T21:51:33.731Z,28.85
2019-03-18T21:53:59.960Z,22.25
2019-03-18T21:56:26.776Z,27.73
2019-03-18T21:58:53.072Z,24.15
2019-03-18T22:01:19.532Z,24.23
2019-03-18T22:03:46.353Z,20.10
2019-03-18T22:06:12.600Z,23.62
2019-03-18T22:08:39.049Z,15.18
2019-03-18T22:11:05.441Z,23.35
2019-03-18T22:13:31.911Z,19.85
2019-03-18T22:15:58.167Z,19.42
2019-03-18T22:18:24.445Z,19.50
2019-03-18T22:20:50.849Z,25.75
2019-03-18T22:23:17.327Z,17.48
2019-03-18T22:25:43.729Z,24.80
2019-03-18T22:28:10.296Z,20.45
2019-03-18T22:30:36.726Z,18.05
2019-03-18T22:33:03.221Z,21.87
2019-03-18T22:35:29.568Z,21.33
2019-03-18T22:37:55.968Z,16.85
2019-03-18T22:40:22.375Z,19.75
2019-03-18T22:42:48.635Z,26.27
2019-03-18T22:45:15.858Z,19.42
2019-03-18T22:47:42.278Z,22.55
2019-03-18T22:50:11.110Z,23.75
2019-03-18T22:52:37.552Z,27.50
2019-03-18T22:55:11.916Z,24.70
2019-03-18T22:57:38.485Z,18.50
2019-03-18T23:00:10.512Z,23.95
2019-03-18T23:02:36.974Z,30.85
2019-03-18T23:05:05.155Z,20.20
2019-03-18T23:07:32.069Z,16.82
2019-03-18T23:09:58.342Z,26.73
2019-03-18T23:12:24.834Z,21.60
2019-03-18T23:14:51.249Z,22.98
2019-03-18T23:17:17.667Z,24.55
2019-03-18T23:19:44.155Z,24.45
2019-03-18T23:22:10.491Z,27.40
2019-03-18T23:24:36.806Z,26.33
2019-03-18T23:27:03.201Z,26.48
2019-03-18T23:29:29.482Z,29.75
2019-03-18T23:31:56.001Z,23.15
2019-03-18T23:34:22.267Z,24.15
2019-03-18T23:36:48.681Z,24.80
2019-03-18T23:39:14.983Z,26.02
2019-03-18T23:41:41.715Z,20.97
2019-03-18T23:44:08.205Z,19.80
2019-03-18T23:46:34.528Z,20.48
2019-03-18T23:49:00.871Z,21.90
2019-03-18T23:51:27.483Z,16.02
2019-03-18T23:53:54.268Z,22.93
2019-03-18T23:56:20.508Z,22.67
2019-03-18T23:58:46.828Z,23.12
